sensor_id;sensor_type;location;lat;lon;timestamp;temperature;humidity
48998;DHT22;34807;51.456;7.244;2024-01-15T00:01:54;1.80;99.90
48998;DHT22;34807;51.456;7.244;2024-01-15T00:04:20;1.80;99.90
48998;DHT22;34807;51.456;7.244;2024-01-15T00:06:45;1.80;99.90
48998;DHT22;34807;51.456;7.244;2024-01-15T00:09:11;1.80;99.90
48998;DHT22;34807;51.456;7.244;2024-01-15T00:11:36;1.80;99.90
48998;DHT22;34807;51.456;7.244;2024-01-15T00:14:02;1.80;99.90
48998;DHT22;34807;51.456;7.244;2024-01-15T00:16:28;1.80;99.90
48998;DHT22;34807;51.456;7.244;2024-01-15T00:18:54;1.80;99.90
48998;DHT22;34807;51.456;7.244;2024-01-15T00:21:19;1.80;99.90
48998;DHT22;34807;51.456;7.244;2024-01-15T00:23:45;1.80;99.90
48998;DHT22;34807;51.456;7.244;2024-01-15T00:26:10;1.90;99.90
48998;DHT22;34807;51.456;7.244;2024-01-15T00:28:36;1.80;99.90
48998;DHT22;34807;51.456;7.244;2024-01-15T00:31:03;1.80;99.90
48998;DHT22;34807;51.456;7.244;2024-01-15T00:33:28;1.80;99.90
48998;DHT22;34807;51.456;7.244;2024-01-15T00:35:54;1.80;99.90
48998;DHT22;34807;51.456;7.244;2024-01-15T00:38:19;1.90;99.90
48998;DHT22;34807;51.456;7.244;2024-01-15T00:40:45;1.80;99.90
48998;DHT22;34807;51.456;7.244;2024-01-15T00:43:11;1.80;99.90
48998;DHT22;34807;51.456;7.244;2024-01-15T00:45:36;1.80;99.90
48998;DHT22;34807;51.456;7.244;2024-01-15T00:48:02;1.80;99.90
48998;DHT22;34807;51.456;7.244;2024-01-15T00:50:28;1.80;99.90
48998;DHT22;34807;51.456;7.244;2024-01-15T00:52:54;1.80;99.90
48998;DHT22;34807;51.456;7.244;2024-01-15T00:55:19;1.90;99.90
48998;DHT22;34807;51.456;7.244;2024-01-15T00:57:45;1.80;99.90
48998;DHT22;34807;51.456;7.244;2024-01-15T01:00:11;1.90;99.90
48998;DHT22;34807;51.456;7.244;2024-01-15T01:02:36;1.80;99.90
48998;DHT22;34807;51.456;7.244;2024-01-15T01:05:02;1.90;99.90
48998;DHT22;34807;51.456;7.244;2024-01-15T01:07:28;1.90;99.90
48998;DHT22;34807;51.456;7.244;2024-01-15T01:09:54;1.90;99.90
48998;DHT22;34807;51.456;7.244;2024-01-15T01:12:20;1.80;99.90
48998;DHT22;34807;51.456;7.244;2024-01-15T01:14:45;1.80;99.90
48998;DHT22;34807;51.456;7.244;2024-01-15T01:17:11;1.80;99.90
48998;DHT22;34807;51.456;7.244;2024-01-15T01:19:36;1.80;99.90
48998;DHT22;34807;51.456;7.244;2024-01-15T01:22:02;1.90;99.90
48998;DHT22;34807;51.456;7.244;2024-01-15T01:24:27;1.90;99.90
48998;DHT22;34807;51.456;7.244;2024-01-15T01:26:53;1.90;99.90
48998;DHT22;34807;51.456;7.244;2024-01-15T01:29:18;1.80;99.90
48998;DHT22;34807;51.456;7.244;2024-01-15T01:31:44;1.80;99.90
48998;DHT22;34807;51.456;7.244;2024-01-15T01:34:10;1.90;99.90
48998;DHT22;34807;51.456;7.244;2024-01-15T01:36:36;1.90;99.90
48998;DHT22;34807;51.456;7.244;2024-01-15T01:39:01;1.90;99.90
48998;DHT22;34807;51.456;7.244;2024-01-15T01:41:27;1.90;99.90
48998;DHT22;34807;51.456;7.244;2024-01-15T01:43:52;1.90;99.90
48998;DHT22;34807;51.456;7.244;2024-01-15T01:46:18;1.90;99.90
48998;DHT22;34807;51.456;7.244;2024-01-15T01:48:43;1.80;99.90
48998;DHT22;34807;51.456;7.244;2024-01-15T01:51:09;1.90;99.90
48998;DHT22;34807;51.456;7.244;2024-01-15T01:53:35;1.80;99.90
48998;DHT22;34807;51.456;7.244;2024-01-15T01:56:01;1.90;99.90
48998;DHT22;34807;51.456;7.244;2024-01-15T01:58:28;1.80;99.90
48998;DHT22;34807;51.456;7.244;2024-01-15T02:00:54;1.80;99.90
48998;DHT22;34807;51.456;7.244;2024-01-15T02:03:19;1.90;99.90
48998;DHT22;34807;51.456;7.244;2024-01-15T02:05:45;1.80;99.90
48998;DHT22;34807;51.456;7.244;2024-01-15T02:08:13;1.90;99.90
48998;DHT22;34807;51.456;7.244;2024-01-15T02:10:38;1.80;99.90
48998;DHT22;34807;51.456;7.244;2024-01-15T02:13:04;1.90;99.90
48998;DHT22;34807;51.456;7.244;2024-01-15T02:15:29;1.90;99.90
48998;DHT22;34807;51.456;7.244;2024-01-15T02:18:02;1.90;99.90
48998;DHT22;34807;51.456;7.244;2024-01-15T02:20:28;1.90;99.90
48998;DHT22;34807;51.456;7.244;2024-01-15T02:22:54;1.80;99.90
48998;DHT22;34807;51.456;7.244;2024-01-15T02:25:19;1.80;99.90
48998;DHT22;34807;51.456;7.244;2024-01-15T02:27:45;1.80;99.90
48998;DHT22;34807;51.456;7.244;2024-01-15T02:30:12;1.80;99.90
48998;DHT22;34807;51.456;7.244;2024-01-15T02:32:38;1.90;99.90
48998;DHT22;34807;51.456;7.244;2024-01-15T02:35:03;1.90;99.90
48998;DHT22;34807;51.456;7.244;2024-01-15T02:37:29;1.90;99.90
48998;DHT22;34807;51.456;7.244;2024-01-15T02:39:55;1.90;99.90
48998;DHT22;34807;51.456;7.244;2024-01-15T02:42:20;1.80;99.90
48998;DHT22;34807;51.456;7.244;2024-01-15T02:44:46;1.90;99.90
48998;DHT22;34807;51.456;7.244;2024-01-15T02:47:11;1.90;99.90
48998;DHT22;34807;51.456;7.244;2024-01-15T02:49:37;1.90;99.90
48998;DHT22;34807;51.456;7.244;2024-01-15T02:52:02;1.90;99.90
48998;DHT22;34807;51.456;7.244;2024-01-15T02:54:28;1.80;99.90
48998;DHT22;34807;51.456;7.244;2024-01-15T02:56:53;1.80;99.90
48998;DHT22;34807;51.456;7.244;2024-01-15T02:59:19;1.80;99.90
48998;DHT22;34807;51.456;7.244;2024-01-15T03:01:44;1.90;99.90
48998;DHT22;34807;51.456;7.244;2024-01-15T03:04:10;1.90;99.90
48998;DHT22;34807;51.456;7.244;2024-01-15T03:06:35;1.90;99.90
48998;DHT22;34807;51.456;7.244;2024-01-15T03:09:01;1.90;99.90
48998;DHT22;34807;51.456;7.244;2024-01-15T03:11:26;1.90;99.90
48998;DHT22;34807;51.456;7.244;2024-01-15T03:13:52;1.90;99.90
48998;DHT22;34807;51.456;7.244;2024-01-15T03:16:17;1.90;99.90
48998;DHT22;34807;51.456;7.244;2024-01-15T03:18:45;1.90;99.90
48998;DHT22;34807;51.456;7.244;2024-01-15T03:21:10;1.90;99.90
48998;DHT22;34807;51.456;7.244;2024-01-15T03:23:36;1.90;99.90
48998;DHT22;34807;51.456;7.244;2024-01-15T03:26:01;1.90;99.90
48998;DHT22;34807;51.456;7.244;2024-01-15T03:28:27;1.90;99.90
48998;DHT22;34807;51.456;7.244;2024-01-15T03:30:52;1.90;99.90
48998;DHT22;34807;51.456;7.244;2024-01-15T03:33:18;1.90;99.90
48998;DHT22;34807;51.456;7.244;2024-01-15T03:35:43;1.90;99.90
48998;DHT22;34807;51.456;7.244;2024-01-15T03:38:09;1.90;99.90
48998;DHT22;34807;51.456;7.244;2024-01-15T03:40:34;1.90;99.90
48998;DHT22;34807;51.456;7.244;2024-01-15T03:43:00;1.90;99.90
48998;DHT22;34807;51.456;7.244;2024-01-15T03:45:26;1.90;99.90
48998;DHT22;34807;51.456;7.244;2024-01-15T03:47:51;1.90;99.90
48998;DHT22;34807;51.456;7.244;2024-01-15T03:50:17;1.90;99.90
48998;DHT22;34807;51.456;7.244;2024-01-15T03:52:42;1.90;99.90
48998;DHT22;34807;51.456;7.244;2024-01-15T03:55:08;1.90;99.90
48998;DHT22;34807;51.456;7.244;2024-01-15T03:57:33;1.90;99.90
48998;DHT22;34807;51.456;7.244;2024-01-15T03:59:59;1.90;99.90
48998;DHT22;34807;51.456;7.244;2024-01-15T04:02:24;1.90;99.90
48998;DHT22;34807;51.456;7.244;2024-01-15T04:04:50;1.90;99.90
48998;DHT22;34807;51.456;7.244;2024-01-15T04:07:15;1.90;99.90
48998;DHT22;34807;51.456;7.244;2024-01-15T04:09:41;1.90;99.90
48998;DHT22;34807;51.456;7.244;2024-01-15T04:12:06;1.90;99.90
48998;DHT22;34807;51.456;7.244;2024-01-15T04:14:32;1.90;99.90
48998;DHT22;34807;51.456;7.244;2024-01-15T04:16:57;1.90;99.90
48998;DHT22;34807;51.456;7.244;2024-01-15T04:19:23;1.90;99.90
48998;DHT22;34807;51.456;7.244;2024-01-15T04:21:48;1.90;99.90
48998;DHT22;34807;51.456;7.244;2024-01-15T04:24:14;1.90;99.90
48998;DHT22;34807;51.456;7.244;2024-01-15T04:26:39;1.90;99.90
48998;DHT22;34807;51.456;7.244;2024-01-15T04:29:05;1.90;99.90
48998;DHT22;34807;51.456;7.244;2024-01-15T04:31:30;1.90;99.90
48998;DHT22;34807;51.456;7.244;2024-01-15T04:33:56;1.90;99.90
48998;DHT22;34807;51.456;7.244;2024-01-15T04:36:21;1.90;99.90
48998;DHT22;34807;51.456;7.244;2024-01-15T04:38:47;1.90;99.90
48998;DHT22;34807;51.456;7.244;2024-01-15T04:41:13;1.90;99.90
48998;DHT22;34807;51.456;7.244;2024-01-15T04:43:39;1.90;99.90
48998;DHT22;34807;51.456;7.244;2024-01-15T04:46:08;1.90;99.90
48998;DHT22;34807;51.456;7.244;2024-01-15T04:48:33;1.90;99.90
48998;DHT22;34807;51.456;7.244;2024-01-15T04:50:59;1.90;99.90
48998;DHT22;34807;51.456;7.244;2024-01-15T04:53:25;1.90;99.90
48998;DHT22;34807;51.456;7.244;2024-01-15T04:55:50;1.90;99.90
48998;DHT22;34807;51.456;7.244;2024-01-15T04:58:16;1.90;99.90
48998;DHT22;34807;51.456;7.244;2024-01-15T05:00:41;1.90;99.90
48998;DHT22;34807;51.456;7.244;2024-01-15T05:03:07;1.90;99.90
48998;DHT22;34807;51.456;7.244;2024-01-15T05:05:32;1.90;99.90
48998;DHT22;34807;51.456;7.244;2024-01-15T05:07:58;1.90;99.90
48998;DHT22;34807;51.456;7.244;2024-01-15T05:10:23;1.90;99.90
48998;DHT22;34807;51.456;7.244;2024-01-15T05:12:48;1.90;99.90
48998;DHT22;34807;51.456;7.244;2024-01-15T05:15:14;1.90;99.90
48998;DHT22;34807;51.456;7.244;2024-01-15T05:17:40;1.90;99.90
48998;DHT22;34807;51.456;7.244;2024-01-15T05:20:05;1.90;99.90
48998;DHT22;34807;51.456;7.244;2024-01-15T05:22:31;1.90;99.90
48998;DHT22;34807;51.456;7.244;2024-01-15T05:24:56;1.90;99.90
48998;DHT22;34807;51.456;7.244;2024-01-15T05:27:22;1.90;99.90
48998;DHT22;34807;51.456;7.244;2024-01-15T05:29:47;1.90;99.90
48998;DHT22;34807;51.456;7.244;2024-01-15T05:32:15;1.90;99.90
48998;DHT22;34807;51.456;7.244;2024-01-15T05:34:40;1.90;99.90
48998;DHT22;34807;51.456;7.244;2024-01-15T05:37:05;1.90;99.90
48998;DHT22;34807;51.456;7.244;2024-01-15T05:39:31;1.90;99.90
48998;DHT22;34807;51.456;7.244;2024-01-15T05:41:57;1.90;99.90
48998;DHT22;34807;51.456;7.244;2024-01-15T05:44:23;1.90;99.90
48998;DHT22;34807;51.456;7.244;2024-01-15T05:46:48;1.90;99.90
48998;DHT22;34807;51.456;7.244;2024-01-15T05:49:14;1.90;99.90
48998;DHT22;34807;51.456;7.244;2024-01-15T05:51:39;1.90;99.90
48998;DHT22;34807;51.456;7.244;2024-01-15T05:54:05;1.90;99.90
48998;DHT22;34807;51.456;7.244;2024-01-15T05:56:31;1.90;99.90
48998;DHT22;34807;51.456;7.244;2024-01-15T05:58:56;1.90;99.90
48998;DHT22;34807;51.456;7.244;2024-01-15T06:01:22;1.90;99.90
48998;DHT22;34807;51.456;7.244;2024-01-15T06:03:47;1.90;99.90
48998;DHT22;34807;51.456;7.244;2024-01-15T06:06:13;1.90;99.90
48998;DHT22;34807;51.456;7.244;2024-01-15T06:08:38;1.90;99.90
48998;DHT22;34807;51.456;7.244;2024-01-15T06:11:04;1.90;99.90
48998;DHT22;34807;51.456;7.244;2024-01-15T06:13:30;1.90;99.90
48998;DHT22;34807;51.456;7.244;2024-01-15T06:15:55;1.90;99.90
48998;DHT22;34807;51.456;7.244;2024-01-15T06:18:21;1.90;99.90
48998;DHT22;34807;51.456;7.244;2024-01-15T06:20:46;1.90;99.90
48998;DHT22;34807;51.456;7.244;2024-01-15T06:23:12;1.90;99.90
48998;DHT22;34807;51.456;7.244;2024-01-15T06:25:37;1.90;99.90
48998;DHT22;34807;51.456;7.244;2024-01-15T06:28:03;1.90;99.90
48998;DHT22;34807;51.456;7.244;2024-01-15T06:30:30;1.90;99.90
48998;DHT22;34807;51.456;7.244;2024-01-15T06:32:55;1.90;99.90
48998;DHT22;34807;51.456;7.244;2024-01-15T06:35:21;1.90;99.90
48998;DHT22;34807;51.456;7.244;2024-01-15T06:37:46;1.90;99.90
48998;DHT22;34807;51.456;7.244;2024-01-15T06:40:12;1.90;99.90
48998;DHT22;34807;51.456;7.244;2024-01-15T06:42:37;1.90;99.90
48998;DHT22;34807;51.456;7.244;2024-01-15T06:45:03;1.90;99.90
48998;DHT22;34807;51.456;7.244;2024-01-15T06:47:29;1.90;99.90
48998;DHT22;34807;51.456;7.244;2024-01-15T06:49:54;1.90;99.90
48998;DHT22;34807;51.456;7.244;2024-01-15T06:52:20;1.90;99.90
48998;DHT22;34807;51.456;7.244;2024-01-15T06:54:45;1.90;99.90
48998;DHT22;34807;51.456;7.244;2024-01-15T06:57:11;1.90;99.90
48998;DHT22;34807;51.456;7.244;2024-01-15T06:59:36;1.90;99.90
48998;DHT22;34807;51.456;7.244;2024-01-15T07:02:02;1.90;99.90
48998;DHT22;34807;51.456;7.244;2024-01-15T07:04:28;1.90;99.90
48998;DHT22;34807;51.456;7.244;2024-01-15T07:06:53;1.90;99.90
48998;DHT22;34807;51.456;7.244;2024-01-15T07:09:19;1.90;99.90
48998;DHT22;34807;51.456;7.244;2024-01-15T07:11:44;1.90;99.90
48998;DHT22;34807;51.456;7.244;2024-01-15T07:14:11;1.90;99.90
48998;DHT22;34807;51.456;7.244;2024-01-15T07:16:36;1.90;99.90
48998;DHT22;34807;51.456;7.244;2024-01-15T07:19:02;1.90;99.90
48998;DHT22;34807;51.456;7.244;2024-01-15T07:21:27;1.90;99.90
48998;DHT22;34807;51.456;7.244;2024-01-15T07:23:53;1.90;99.90
48998;DHT22;34807;51.456;7.244;2024-01-15T07:26:18;1.90;99.90
48998;DHT22;34807;51.456;7.244;2024-01-15T07:28:44;1.90;99.90
48998;DHT22;34807;51.456;7.244;2024-01-15T07:31:09;1.90;99.90
48998;DHT22;34807;51.456;7.244;2024-01-15T07:33:35;1.90;99.90
48998;DHT22;34807;51.456;7.244;2024-01-15T07:36:00;1.90;99.90
48998;DHT22;34807;51.456;7.244;2024-01-15T07:38:28;1.90;99.90
48998;DHT22;34807;51.456;7.244;2024-01-15T07:40:53;2.00;99.90
48998;DHT22;34807;51.456;7.244;2024-01-15T07:43:19;1.90;99.90
48998;DHT22;34807;51.456;7.244;2024-01-15T07:45:44;1.90;99.90
48998;DHT22;34807;51.456;7.244;2024-01-15T07:48:10;1.90;99.90
48998;DHT22;34807;51.456;7.244;2024-01-15T07:50:36;1.90;99.90
48998;DHT22;34807;51.456;7.244;2024-01-15T07:53:01;1.90;99.90
48998;DHT22;34807;51.456;7.244;2024-01-15T07:55:27;1.90;99.90
48998;DHT22;34807;51.456;7.244;2024-01-15T07:57:52;2.00;99.90
48998;DHT22;34807;51.456;7.244;2024-01-15T08:00:19;2.00;99.90
48998;DHT22;34807;51.456;7.244;2024-01-15T08:02:44;1.90;99.90
48998;DHT22;34807;51.456;7.244;2024-01-15T08:05:10;2.00;99.90
48998;DHT22;34807;51.456;7.244;2024-01-15T08:07:35;2.00;99.90
48998;DHT22;34807;51.456;7.244;2024-01-15T08:10:01;2.00;99.90
48998;DHT22;34807;51.456;7.244;2024-01-15T08:12:26;2.00;99.90
48998;DHT22;34807;51.456;7.244;2024-01-15T08:14:52;1.90;99.90
48998;DHT22;34807;51.456;7.244;2024-01-15T08:17:17;1.90;99.90
48998;DHT22;34807;51.456;7.244;2024-01-15T08:19:43;1.90;99.90
48998;DHT22;34807;51.456;7.244;2024-01-15T08:22:09;2.00;99.90
48998;DHT22;34807;51.456;7.244;2024-01-15T08:24:35;2.00;99.90
48998;DHT22;34807;51.456;7.244;2024-01-15T08:27:00;2.00;99.90
48998;DHT22;34807;51.456;7.244;2024-01-15T08:29:26;2.00;99.90
48998;DHT22;34807;51.456;7.244;2024-01-15T08:31:51;2.00;99.90
48998;DHT22;34807;51.456;7.244;2024-01-15T08:34:17;2.00;99.90
48998;DHT22;34807;51.456;7.244;2024-01-15T08:36:42;2.00;99.90
48998;DHT22;34807;51.456;7.244;2024-01-15T08:39:08;2.00;99.90
48998;DHT22;34807;51.456;7.244;2024-01-15T08:41:34;2.00;99.90
48998;DHT22;34807;51.456;7.244;2024-01-15T08:44:00;2.00;99.90
48998;DHT22;34807;51.456;7.244;2024-01-15T08:46:25;2.00;99.90
48998;DHT22;34807;51.456;7.244;2024-01-15T08:48:51;2.00;99.90
48998;DHT22;34807;51.456;7.244;2024-01-15T08:51:16;2.00;99.90
48998;DHT22;34807;51.456;7.244;2024-01-15T08:53:43;2.00;99.90
48998;DHT22;34807;51.456;7.244;2024-01-15T08:56:09;2.00;99.90
48998;DHT22;34807;51.456;7.244;2024-01-15T08:58:34;2.00;99.90
48998;DHT22;34807;51.456;7.244;2024-01-15T09:01:00;2.00;99.90
48998;DHT22;34807;51.456;7.244;2024-01-15T09:03:25;2.00;99.90
48998;DHT22;34807;51.456;7.244;2024-01-15T09:05:51;2.00;99.90
48998;DHT22;34807;51.456;7.244;2024-01-15T09:08:16;2.00;99.90
48998;DHT22;34807;51.456;7.244;2024-01-15T09:10:42;2.10;99.90
48998;DHT22;34807;51.456;7.244;2024-01-15T09:13:07;2.00;99.90
48998;DHT22;34807;51.456;7.244;2024-01-15T09:15:33;2.00;99.90
48998;DHT22;34807;51.456;7.244;2024-01-15T09:17:59;2.00;99.90
48998;DHT22;34807;51.456;7.244;2024-01-15T09:20:24;2.00;99.90
48998;DHT22;34807;51.456;7.244;2024-01-15T09:22:51;2.10;99.90
48998;DHT22;34807;51.456;7.244;2024-01-15T09:25:16;2.10;99.90
48998;DHT22;34807;51.456;7.244;2024-01-15T09:27:42;2.10;99.90
48998;DHT22;34807;51.456;7.244;2024-01-15T09:30:08;2.10;99.90
48998;DHT22;34807;51.456;7.244;2024-01-15T09:32:33;2.10;99.90
48998;DHT22;34807;51.456;7.244;2024-01-15T09:34:59;2.10;99.90
48998;DHT22;34807;51.456;7.244;2024-01-15T09:37:24;2.10;99.90
48998;DHT22;34807;51.456;7.244;2024-01-15T09:39:50;2.10;99.90
48998;DHT22;34807;51.456;7.244;2024-01-15T09:42:15;2.10;99.90
48998;DHT22;34807;51.456;7.244;2024-01-15T09:44:41;2.10;99.90
48998;DHT22;34807;51.456;7.244;2024-01-15T09:47:07;2.10;99.90
48998;DHT22;34807;51.456;7.244;2024-01-15T09:49:33;2.10;99.90
48998;DHT22;34807;51.456;7.244;2024-01-15T09:51:58;2.10;99.90
48998;DHT22;34807;51.456;7.244;2024-01-15T09:54:24;2.10;99.90
48998;DHT22;34807;51.456;7.244;2024-01-15T09:56:50;2.10;99.90
48998;DHT22;34807;51.456;7.244;2024-01-15T09:59:16;2.10;99.90
48998;DHT22;34807;51.456;7.244;2024-01-15T10:01:43;2.10;99.90
48998;DHT22;34807;51.456;7.244;2024-01-15T10:04:09;2.10;99.90
48998;DHT22;34807;51.456;7.244;2024-01-15T10:06:35;2.10;99.90
48998;DHT22;34807;51.456;7.244;2024-01-15T10:09:01;2.20;99.90
48998;DHT22;34807;51.456;7.244;2024-01-15T10:11:26;2.20;99.90
48998;DHT22;34807;51.456;7.244;2024-01-15T10:13:52;2.20;99.90
48998;DHT22;34807;51.456;7.244;2024-01-15T10:16:21;2.20;99.90
48998;DHT22;34807;51.456;7.244;2024-01-15T10:18:47;2.20;99.90
48998;DHT22;34807;51.456;7.244;2024-01-15T10:21:13;2.20;99.90
48998;DHT22;34807;51.456;7.244;2024-01-15T10:23:39;2.20;99.90
48998;DHT22;34807;51.456;7.244;2024-01-15T10:26:05;2.30;99.90
48998;DHT22;34807;51.456;7.244;2024-01-15T10:28:30;2.30;99.90
48998;DHT22;34807;51.456;7.244;2024-01-15T10:30:57;2.40;99.90
48998;DHT22;34807;51.456;7.244;2024-01-15T10:33:24;2.40;99.90
48998;DHT22;34807;51.456;7.244;2024-01-15T10:35:53;2.40;99.90
48998;DHT22;34807;51.456;7.244;2024-01-15T10:38:18;2.40;99.90
48998;DHT22;34807;51.456;7.244;2024-01-15T10:40:54;2.40;99.90
48998;DHT22;34807;51.456;7.244;2024-01-15T10:43:20;2.40;99.90
48998;DHT22;34807;51.456;7.244;2024-01-15T10:45:46;2.40;99.90
48998;DHT22;34807;51.456;7.244;2024-01-15T10:48:12;2.40;99.90
48998;DHT22;34807;51.456;7.244;2024-01-15T10:50:38;2.50;99.90
48998;DHT22;34807;51.456;7.244;2024-01-15T10:53:04;2.50;99.90
48998;DHT22;34807;51.456;7.244;2024-01-15T10:55:30;2.50;99.90
48998;DHT22;34807;51.456;7.244;2024-01-15T10:57:57;2.50;99.90
48998;DHT22;34807;51.456;7.244;2024-01-15T11:00:22;2.50;99.90
48998;DHT22;34807;51.456;7.244;2024-01-15T11:02:48;2.50;99.90
48998;DHT22;34807;51.456;7.244;2024-01-15T11:05:13;2.50;99.90
48998;DHT22;34807;51.456;7.244;2024-01-15T11:07:39;2.50;99.90
48998;DHT22;34807;51.456;7.244;2024-01-15T11:10:05;2.50;99.90
48998;DHT22;34807;51.456;7.244;2024-01-15T11:12:31;2.50;99.90
48998;DHT22;34807;51.456;7.244;2024-01-15T11:15:03;2.50;99.90
48998;DHT22;34807;51.456;7.244;2024-01-15T11:18:19;2.50;99.90
48998;DHT22;34807;51.456;7.244;2024-01-15T11:20:20;2.50;99.90
48998;DHT22;34807;51.456;7.244;2024-01-15T11:25:14;2.50;99.90
48998;DHT22;34807;51.456;7.244;2024-01-15T11:27:43;2.50;99.90
48998;DHT22;34807;51.456;7.244;2024-01-15T11:30:10;2.50;99.90
48998;DHT22;34807;51.456;7.244;2024-01-15T11:32:36;2.50;99.90
48998;DHT22;34807;51.456;7.244;2024-01-15T11:35:02;2.60;99.90
48998;DHT22;34807;51.456;7.244;2024-01-15T11:38:15;2.60;99.90
48998;DHT22;34807;51.456;7.244;2024-01-15T11:40:14;2.60;99.90
48998;DHT22;34807;51.456;7.244;2024-01-15T11:42:42;2.60;99.90
48998;DHT22;34807;51.456;7.244;2024-01-15T11:45:08;2.60;99.90
48998;DHT22;34807;51.456;7.244;2024-01-15T11:50:14;2.60;99.90
48998;DHT22;34807;51.456;7.244;2024-01-15T11:52:40;2.60;99.90
48998;DHT22;34807;51.456;7.244;2024-01-15T11:55:11;2.70;99.90
48998;DHT22;34807;51.456;7.244;2024-01-15T11:57:50;2.70;99.90
48998;DHT22;34807;51.456;7.244;2024-01-15T12:00:15;2.70;99.90
48998;DHT22;34807;51.456;7.244;2024-01-15T12:02:41;2.70;99.90
48998;DHT22;34807;51.456;7.244;2024-01-15T12:05:10;2.60;99.90
48998;DHT22;34807;51.456;7.244;2024-01-15T12:07:41;2.70;99.90
48998;DHT22;34807;51.456;7.244;2024-01-15T12:10:10;2.70;99.90
48998;DHT22;34807;51.456;7.244;2024-01-15T12:12:44;2.60;99.90
48998;DHT22;34807;51.456;7.244;2024-01-15T12:15:12;2.60;99.90
48998;DHT22;34807;51.456;7.244;2024-01-15T12:17:38;2.70;99.90
48998;DHT22;34807;51.456;7.244;2024-01-15T12:20:04;2.70;99.90
48998;DHT22;34807;51.456;7.244;2024-01-15T12:22:30;2.70;99.90
48998;DHT22;34807;51.456;7.244;2024-01-15T12:24:55;2.70;99.90
48998;DHT22;34807;51.456;7.244;2024-01-15T12:27:21;2.70;99.90
48998;DHT22;34807;51.456;7.244;2024-01-15T12:29:46;2.70;99.90
48998;DHT22;34807;51.456;7.244;2024-01-15T12:32:12;2.70;99.90
48998;DHT22;34807;51.456;7.244;2024-01-15T12:34:38;2.70;99.90
48998;DHT22;34807;51.456;7.244;2024-01-15T12:37:03;2.70;99.90
48998;DHT22;34807;51.456;7.244;2024-01-15T12:39:29;2.70;99.90
48998;DHT22;34807;51.456;7.244;2024-01-15T12:41:54;2.70;99.90
48998;DHT22;34807;51.456;7.244;2024-01-15T12:44:20;2.70;99.90
48998;DHT22;34807;51.456;7.244;2024-01-15T12:46:45;2.70;99.90
48998;DHT22;34807;51.456;7.244;2024-01-15T12:49:12;2.70;99.90
48998;DHT22;34807;51.456;7.244;2024-01-15T12:51:38;2.70;99.90
48998;DHT22;34807;51.456;7.244;2024-01-15T12:54:04;2.60;99.90
48998;DHT22;34807;51.456;7.244;2024-01-15T12:56:29;2.60;99.90
48998;DHT22;34807;51.456;7.244;2024-01-15T12:58:58;2.60;99.90
48998;DHT22;34807;51.456;7.244;2024-01-15T13:01:24;2.60;99.90
48998;DHT22;34807;51.456;7.244;2024-01-15T13:03:50;2.60;99.90
48998;DHT22;34807;51.456;7.244;2024-01-15T13:06:15;2.60;99.90
48998;DHT22;34807;51.456;7.244;2024-01-15T13:08:41;2.60;99.90
48998;DHT22;34807;51.456;7.244;2024-01-15T13:11:07;2.60;99.90
48998;DHT22;34807;51.456;7.244;2024-01-15T13:13:32;2.60;99.90
48998;DHT22;34807;51.456;7.244;2024-01-15T13:15:59;2.60;99.90
48998;DHT22;34807;51.456;7.244;2024-01-15T13:18:25;2.60;99.90
48998;DHT22;34807;51.456;7.244;2024-01-15T13:20:50;2.60;99.90
48998;DHT22;34807;51.456;7.244;2024-01-15T13:23:16;2.60;99.90
48998;DHT22;34807;51.456;7.244;2024-01-15T13:25:42;2.60;99.90
48998;DHT22;34807;51.456;7.244;2024-01-15T13:28:07;2.70;99.90
48998;DHT22;34807;51.456;7.244;2024-01-15T13:30:35;2.70;99.90
48998;DHT22;34807;51.456;7.244;2024-01-15T13:33:01;2.70;99.90
48998;DHT22;34807;51.456;7.244;2024-01-15T13:35:29;2.70;99.90
48998;DHT22;34807;51.456;7.244;2024-01-15T13:37:55;2.70;99.90
48998;DHT22;34807;51.456;7.244;2024-01-15T13:40:21;2.80;99.90
48998;DHT22;34807;51.456;7.244;2024-01-15T13:42:46;2.80;99.90
48998;DHT22;34807;51.456;7.244;2024-01-15T13:45:12;2.80;99.90
48998;DHT22;34807;51.456;7.244;2024-01-15T13:47:40;2.80;99.90
48998;DHT22;34807;51.456;7.244;2024-01-15T13:50:07;2.80;99.90
48998;DHT22;34807;51.456;7.244;2024-01-15T13:52:33;2.80;99.90
48998;DHT22;34807;51.456;7.244;2024-01-15T13:54:58;2.80;99.90
48998;DHT22;34807;51.456;7.244;2024-01-15T13:57:24;2.90;99.90
48998;DHT22;34807;51.456;7.244;2024-01-15T13:59:50;2.90;99.90
48998;DHT22;34807;51.456;7.244;2024-01-15T14:02:15;2.90;99.90
48998;DHT22;34807;51.456;7.244;2024-01-15T14:04:41;2.90;99.90
48998;DHT22;34807;51.456;7.244;2024-01-15T14:07:09;2.90;99.90
48998;DHT22;34807;51.456;7.244;2024-01-15T14:09:35;3.00;99.90
48998;DHT22;34807;51.456;7.244;2024-01-15T14:12:00;3.00;99.90
48998;DHT22;34807;51.456;7.244;2024-01-15T14:14:26;2.90;99.90
48998;DHT22;34807;51.456;7.244;2024-01-15T14:16:51;2.90;99.90
48998;DHT22;34807;51.456;7.244;2024-01-15T14:19:17;2.90;99.90
48998;DHT22;34807;51.456;7.244;2024-01-15T14:21:43;2.90;99.90
48998;DHT22;34807;51.456;7.244;2024-01-15T14:24:09;2.90;99.90
48998;DHT22;34807;51.456;7.244;2024-01-15T14:26:34;2.80;99.90
48998;DHT22;34807;51.456;7.244;2024-01-15T14:29:00;2.80;99.90
48998;DHT22;34807;51.456;7.244;2024-01-15T14:31:25;2.80;99.90
48998;DHT22;34807;51.456;7.244;2024-01-15T14:33:52;2.80;99.90
48998;DHT22;34807;51.456;7.244;2024-01-15T14:36:17;2.80;99.90
48998;DHT22;34807;51.456;7.244;2024-01-15T14:38:43;2.70;99.90
48998;DHT22;34807;51.456;7.244;2024-01-15T14:41:08;2.70;99.90
48998;DHT22;34807;51.456;7.244;2024-01-15T14:43:34;2.70;99.90
48998;DHT22;34807;51.456;7.244;2024-01-15T14:45:59;2.70;99.90
48998;DHT22;34807;51.456;7.244;2024-01-15T14:48:25;2.70;99.90
48998;DHT22;34807;51.456;7.244;2024-01-15T14:50:51;2.70;99.90
48998;DHT22;34807;51.456;7.244;2024-01-15T14:53:16;2.70;99.90
48998;DHT22;34807;51.456;7.244;2024-01-15T14:55:42;2.70;99.90
48998;DHT22;34807;51.456;7.244;2024-01-15T14:58:08;2.70;99.90
48998;DHT22;34807;51.456;7.244;2024-01-15T15:00:33;2.60;99.90
48998;DHT22;34807;51.456;7.244;2024-01-15T15:02:59;2.60;99.90
48998;DHT22;34807;51.456;7.244;2024-01-15T15:05:24;2.60;99.90
48998;DHT22;34807;51.456;7.244;2024-01-15T15:07:51;2.60;99.90
48998;DHT22;34807;51.456;7.244;2024-01-15T15:10:16;2.60;99.90
48998;DHT22;34807;51.456;7.244;2024-01-15T15:12:42;2.60;99.90
48998;DHT22;34807;51.456;7.244;2024-01-15T15:15:08;2.60;99.90
48998;DHT22;34807;51.456;7.244;2024-01-15T15:17:36;2.60;99.90
48998;DHT22;34807;51.456;7.244;2024-01-15T15:20:02;2.60;99.90
48998;DHT22;34807;51.456;7.244;2024-01-15T15:22:28;2.60;99.90
48998;DHT22;34807;51.456;7.244;2024-01-15T15:24:53;2.60;99.90
48998;DHT22;34807;51.456;7.244;2024-01-15T15:27:20;2.60;99.90
48998;DHT22;34807;51.456;7.244;2024-01-15T15:29:45;2.60;99.90
48998;DHT22;34807;51.456;7.244;2024-01-15T15:32:13;2.60;99.90
48998;DHT22;34807;51.456;7.244;2024-01-15T15:34:39;2.60;99.90
48998;DHT22;34807;51.456;7.244;2024-01-15T15:37:04;2.60;99.90
48998;DHT22;34807;51.456;7.244;2024-01-15T15:39:30;2.60;99.90
48998;DHT22;34807;51.456;7.244;2024-01-15T15:41:56;2.60;99.90